sensor_id;sensor_type;location;lat;lon;timestamp;P1;durP1;ratioP1;P2;durP2;ratioP2
6376;SDS011;3221;48.858;10.128;2024-03-02T00:01:37;21.43;;;14.87;;
6376;SDS011;3221;48.858;10.128;2024-03-02T00:04:04;20.70;;;14.30;;
6376;SDS011;3221;48.858;10.128;2024-03-02T00:06:33;22.20;;;14.17;;
6376;SDS011;3221;48.858;10.128;2024-03-02T00:09:01;21.63;;;15.30;;
6376;SDS011;3221;48.858;10.128;2024-03-02T00:11:29;21.47;;;14.63;;
6376;SDS011;3221;48.858;10.128;2024-03-02T00:13:56;21.33;;;14.70;;
6376;SDS011;3221;48.858;10.128;2024-03-02T00:16:23;20.27;;;14.67;;
6376;SDS011;3221;48.858;10.128;2024-03-02T00:18:50;20.20;;;14.70;;
6376;SDS011;3221;48.858;10.128;2024-03-02T00:21:18;22.27;;;14.80;;
6376;SDS011;3221;48.858;10.128;2024-03-02T00:23:48;22.53;;;15.30;;
6376;SDS011;3221;48.858;10.128;2024-03-02T00:26:18;20.03;;;14.90;;
6376;SDS011;3221;48.858;10.128;2024-03-02T00:28:45;20.97;;;14.53;;
6376;SDS011;3221;48.858;10.128;2024-03-02T00:31:13;22.33;;;15.47;;
6376;SDS011;3221;48.858;10.128;2024-03-02T00:33:41;19.57;;;14.17;;
6376;SDS011;3221;48.858;10.128;2024-03-02T00:36:13;21.73;;;14.03;;
6376;SDS011;3221;48.858;10.128;2024-03-02T00:41:15;20.07;;;14.80;;
6376;SDS011;3221;48.858;10.128;2024-03-02T00:44:03;22.33;;;15.13;;
6376;SDS011;3221;48.858;10.128;2024-03-02T00:46:36;21.23;;;14.87;;
6376;SDS011;3221;48.858;10.128;2024-03-02T00:49:23;22.73;;;15.60;;
6376;SDS011;3221;48.858;10.128;2024-03-02T00:51:51;24.83;;;16.53;;
6376;SDS011;3221;48.858;10.128;2024-03-02T00:54:20;22.70;;;16.27;;
6376;SDS011;3221;48.858;10.128;2024-03-02T00:56:50;21.10;;;15.13;;
6376;SDS011;3221;48.858;10.128;2024-03-02T00:59:22;23.40;;;16.10;;
6376;SDS011;3221;48.858;10.128;2024-03-02T01:01:50;23.20;;;16.13;;
6376;SDS011;3221;48.858;10.128;2024-03-02T01:04:18;24.50;;;16.80;;
6376;SDS011;3221;48.858;10.128;2024-03-02T01:06:45;23.27;;;16.60;;
6376;SDS011;3221;48.858;10.128;2024-03-02T01:09:14;23.83;;;16.60;;
6376;SDS011;3221;48.858;10.128;2024-03-02T01:11:41;25.00;;;17.50;;
6376;SDS011;3221;48.858;10.128;2024-03-02T01:14:08;23.50;;;16.43;;
6376;SDS011;3221;48.858;10.128;2024-03-02T01:16:35;22.60;;;15.57;;
6376;SDS011;3221;48.858;10.128;2024-03-02T01:19:02;22.67;;;16.43;;
6376;SDS011;3221;48.858;10.128;2024-03-02T01:21:33;22.57;;;16.03;;
6376;SDS011;3221;48.858;10.128;2024-03-02T01:24:00;22.00;;;15.50;;
6376;SDS011;3221;48.858;10.128;2024-03-02T01:26:27;23.40;;;16.70;;
6376;SDS011;3221;48.858;10.128;2024-03-02T01:28:54;23.03;;;15.87;;
6376;SDS011;3221;48.858;10.128;2024-03-02T01:31:22;21.43;;;15.87;;
6376;SDS011;3221;48.858;10.128;2024-03-02T01:33:49;21.43;;;15.57;;
6376;SDS011;3221;48.858;10.128;2024-03-02T01:36:17;23.03;;;16.10;;
6376;SDS011;3221;48.858;10.128;2024-03-02T01:38:44;20.60;;;14.97;;
6376;SDS011;3221;48.858;10.128;2024-03-02T01:41:11;24.50;;;16.77;;
6376;SDS011;3221;48.858;10.128;2024-03-02T01:43:38;22.53;;;15.60;;
6376;SDS011;3221;48.858;10.128;2024-03-02T01:46:07;23.33;;;16.53;;
6376;SDS011;3221;48.858;10.128;2024-03-02T01:48:35;21.20;;;15.27;;
6376;SDS011;3221;48.858;10.128;2024-03-02T01:51:03;24.17;;;16.83;;
6376;SDS011;3221;48.858;10.128;2024-03-02T01:53:32;26.30;;;16.20;;
6376;SDS011;3221;48.858;10.128;2024-03-02T01:56:00;21.67;;;15.67;;
6376;SDS011;3221;48.858;10.128;2024-03-02T01:58:28;26.13;;;17.23;;
6376;SDS011;3221;48.858;10.128;2024-03-02T02:00:55;25.50;;;17.23;;
6376;SDS011;3221;48.858;10.128;2024-03-02T02:03:22;23.63;;;16.17;;
6376;SDS011;3221;48.858;10.128;2024-03-02T02:05:49;23.60;;;17.13;;
6376;SDS011;3221;48.858;10.128;2024-03-02T02:08:16;22.70;;;16.10;;
6376;SDS011;3221;48.858;10.128;2024-03-02T02:10:43;23.47;;;16.77;;
6376;SDS011;3221;48.858;10.128;2024-03-02T02:13:11;23.00;;;16.00;;
6376;SDS011;3221;48.858;10.128;2024-03-02T02:15:38;22.57;;;15.77;;
6376;SDS011;3221;48.858;10.128;2024-03-02T02:18:05;23.63;;;16.07;;
6376;SDS011;3221;48.858;10.128;2024-03-02T02:20:32;24.43;;;16.00;;
6376;SDS011;3221;48.858;10.128;2024-03-02T02:23:00;23.40;;;16.20;;
6376;SDS011;3221;48.858;10.128;2024-03-02T02:25:32;23.67;;;16.33;;
6376;SDS011;3221;48.858;10.128;2024-03-02T02:27:59;25.03;;;16.60;;
6376;SDS011;3221;48.858;10.128;2024-03-02T02:30:27;24.27;;;16.57;;
6376;SDS011;3221;48.858;10.128;2024-03-02T02:32:56;24.87;;;16.33;;
6376;SDS011;3221;48.858;10.128;2024-03-02T02:35:23;23.33;;;15.93;;
6376;SDS011;3221;48.858;10.128;2024-03-02T02:37:51;23.80;;;16.40;;
6376;SDS011;3221;48.858;10.128;2024-03-02T02:40:20;25.53;;;17.47;;
6376;SDS011;3221;48.858;10.128;2024-03-02T02:42:48;23.27;;;15.47;;
6376;SDS011;3221;48.858;10.128;2024-03-02T02:45:15;22.50;;;15.43;;
6376;SDS011;3221;48.858;10.128;2024-03-02T02:47:43;23.97;;;15.93;;
6376;SDS011;3221;48.858;10.128;2024-03-02T02:50:11;22.60;;;15.03;;
6376;SDS011;3221;48.858;10.128;2024-03-02T02:52:39;23.70;;;15.50;;
6376;SDS011;3221;48.858;10.128;2024-03-02T02:55:08;21.57;;;15.07;;
6376;SDS011;3221;48.858;10.128;2024-03-02T02:57:40;22.17;;;15.50;;
6376;SDS011;3221;48.858;10.128;2024-03-02T03:00:10;23.50;;;15.73;;
6376;SDS011;3221;48.858;10.128;2024-03-02T03:02:45;20.17;;;14.30;;
6376;SDS011;3221;48.858;10.128;2024-03-02T03:05:16;22.73;;;14.37;;
6376;SDS011;3221;48.858;10.128;2024-03-02T03:07:43;22.27;;;14.83;;
6376;SDS011;3221;48.858;10.128;2024-03-02T03:10:11;20.13;;;14.07;;
6376;SDS011;3221;48.858;10.128;2024-03-02T03:12:41;22.27;;;14.67;;
6376;SDS011;3221;48.858;10.128;2024-03-02T03:15:10;22.53;;;14.47;;
6376;SDS011;3221;48.858;10.128;2024-03-02T03:17:38;23.17;;;14.83;;
6376;SDS011;3221;48.858;10.128;2024-03-02T03:20:06;21.37;;;14.40;;
6376;SDS011;3221;48.858;10.128;2024-03-02T03:22:39;21.33;;;14.73;;
6376;SDS011;3221;48.858;10.128;2024-03-02T03:25:06;21.20;;;14.37;;
6376;SDS011;3221;48.858;10.128;2024-03-02T03:27:36;20.70;;;14.40;;
6376;SDS011;3221;48.858;10.128;2024-03-02T03:30:03;22.17;;;14.70;;
6376;SDS011;3221;48.858;10.128;2024-03-02T03:32:33;22.27;;;15.27;;
6376;SDS011;3221;48.858;10.128;2024-03-02T03:35:00;22.30;;;14.73;;
6376;SDS011;3221;48.858;10.128;2024-03-02T03:37:27;24.23;;;15.87;;
6376;SDS011;3221;48.858;10.128;2024-03-02T03:40:01;22.10;;;15.30;;
6376;SDS011;3221;48.858;10.128;2024-03-02T03:42:29;23.40;;;15.43;;
6376;SDS011;3221;48.858;10.128;2024-03-02T03:44:56;22.00;;;14.80;;
6376;SDS011;3221;48.858;10.128;2024-03-02T03:47:24;22.97;;;15.23;;
6376;SDS011;3221;48.858;10.128;2024-03-02T03:49:51;22.07;;;14.67;;
6376;SDS011;3221;48.858;10.128;2024-03-02T03:52:18;20.67;;;13.93;;
6376;SDS011;3221;48.858;10.128;2024-03-02T03:54:45;23.40;;;15.40;;
6376;SDS011;3221;48.858;10.128;2024-03-02T03:57:12;24.20;;;15.43;;
6376;SDS011;3221;48.858;10.128;2024-03-02T03:59:39;20.20;;;13.93;;
6376;SDS011;3221;48.858;10.128;2024-03-02T04:02:06;20.90;;;14.20;;
6376;SDS011;3221;48.858;10.128;2024-03-02T04:04:35;22.70;;;14.60;;
6376;SDS011;3221;48.858;10.128;2024-03-02T04:07:02;23.33;;;15.13;;
6376;SDS011;3221;48.858;10.128;2024-03-02T04:09:29;21.83;;;15.40;;
6376;SDS011;3221;48.858;10.128;2024-03-02T04:11:56;24.50;;;16.47;;
6376;SDS011;3221;48.858;10.128;2024-03-02T04:14:23;22.97;;;15.17;;
6376;SDS011;3221;48.858;10.128;2024-03-02T04:16:50;21.47;;;14.47;;
6376;SDS011;3221;48.858;10.128;2024-03-02T04:19:18;23.50;;;15.70;;
6376;SDS011;3221;48.858;10.128;2024-03-02T04:21:45;25.87;;;16.60;;
6376;SDS011;3221;48.858;10.128;2024-03-02T04:24:12;22.50;;;15.13;;
6376;SDS011;3221;48.858;10.128;2024-03-02T04:26:39;21.60;;;14.67;;
6376;SDS011;3221;48.858;10.128;2024-03-02T04:29:06;22.60;;;15.13;;
6376;SDS011;3221;48.858;10.128;2024-03-02T04:31:33;20.47;;;14.37;;
6376;SDS011;3221;48.858;10.128;2024-03-02T04:34:00;20.53;;;14.30;;
6376;SDS011;3221;48.858;10.128;2024-03-02T04:36:28;18.53;;;13.57;;
6376;SDS011;3221;48.858;10.128;2024-03-02T04:38:54;19.60;;;13.40;;
6376;SDS011;3221;48.858;10.128;2024-03-02T04:41:22;20.47;;;14.23;;
6376;SDS011;3221;48.858;10.128;2024-03-02T04:43:49;19.07;;;12.80;;
6376;SDS011;3221;48.858;10.128;2024-03-02T04:46:16;18.63;;;12.87;;
6376;SDS011;3221;48.858;10.128;2024-03-02T04:48:43;20.17;;;13.90;;
6376;SDS011;3221;48.858;10.128;2024-03-02T04:51:11;16.53;;;12.03;;
6376;SDS011;3221;48.858;10.128;2024-03-02T04:53:38;19.50;;;13.20;;
6376;SDS011;3221;48.858;10.128;2024-03-02T04:56:05;19.63;;;13.70;;
6376;SDS011;3221;48.858;10.128;2024-03-02T04:58:51;18.33;;;12.47;;
6376;SDS011;3221;48.858;10.128;2024-03-02T05:01:18;18.23;;;13.40;;
6376;SDS011;3221;48.858;10.128;2024-03-02T05:03:45;18.67;;;12.70;;
6376;SDS011;3221;48.858;10.128;2024-03-02T05:06:13;18.03;;;12.43;;
6376;SDS011;3221;48.858;10.128;2024-03-02T05:08:39;19.10;;;12.60;;
6376;SDS011;3221;48.858;10.128;2024-03-02T05:11:06;18.83;;;12.80;;
6376;SDS011;3221;48.858;10.128;2024-03-02T05:13:52;19.33;;;13.27;;
6376;SDS011;3221;48.858;10.128;2024-03-02T05:16:19;20.00;;;13.87;;
6376;SDS011;3221;48.858;10.128;2024-03-02T05:18:46;20.63;;;14.20;;
6376;SDS011;3221;48.858;10.128;2024-03-02T05:21:14;20.17;;;14.17;;
6376;SDS011;3221;48.858;10.128;2024-03-02T05:23:41;21.27;;;14.13;;
6376;SDS011;3221;48.858;10.128;2024-03-02T05:26:10;18.93;;;13.83;;
6376;SDS011;3221;48.858;10.128;2024-03-02T05:28:39;20.70;;;14.17;;
6376;SDS011;3221;48.858;10.128;2024-03-02T05:31:06;20.53;;;14.60;;
6376;SDS011;3221;48.858;10.128;2024-03-02T05:33:33;20.07;;;13.73;;
6376;SDS011;3221;48.858;10.128;2024-03-02T05:36:00;17.93;;;13.40;;
6376;SDS011;3221;48.858;10.128;2024-03-02T05:38:28;20.00;;;13.63;;
6376;SDS011;3221;48.858;10.128;2024-03-02T05:40:55;19.30;;;13.33;;
6376;SDS011;3221;48.858;10.128;2024-03-02T05:43:22;19.40;;;13.57;;
6376;SDS011;3221;48.858;10.128;2024-03-02T05:45:50;18.63;;;12.90;;
6376;SDS011;3221;48.858;10.128;2024-03-02T05:48:17;18.70;;;12.90;;
6376;SDS011;3221;48.858;10.128;2024-03-02T05:50:44;16.43;;;11.73;;
6376;SDS011;3221;48.858;10.128;2024-03-02T05:53:11;17.30;;;12.23;;
6376;SDS011;3221;48.858;10.128;2024-03-02T05:55:38;18.03;;;12.40;;
6376;SDS011;3221;48.858;10.128;2024-03-02T05:58:05;16.37;;;10.87;;
6376;SDS011;3221;48.858;10.128;2024-03-02T06:00:32;16.03;;;10.73;;
6376;SDS011;3221;48.858;10.128;2024-03-02T06:03:00;16.67;;;11.27;;
6376;SDS011;3221;48.858;10.128;2024-03-02T06:05:27;15.73;;;11.10;;
6376;SDS011;3221;48.858;10.128;2024-03-02T06:07:54;15.80;;;11.07;;
6376;SDS011;3221;48.858;10.128;2024-03-02T06:10:21;14.07;;;10.17;;
6376;SDS011;3221;48.858;10.128;2024-03-02T06:12:48;13.80;;;10.00;;
6376;SDS011;3221;48.858;10.128;2024-03-02T06:15:17;13.83;;;9.37;;
6376;SDS011;3221;48.858;10.128;2024-03-02T06:17:44;15.67;;;11.17;;
6376;SDS011;3221;48.858;10.128;2024-03-02T06:20:11;15.50;;;11.10;;
6376;SDS011;3221;48.858;10.128;2024-03-02T06:22:38;15.33;;;10.80;;
6376;SDS011;3221;48.858;10.128;2024-03-02T06:25:05;16.77;;;11.37;;
6376;SDS011;3221;48.858;10.128;2024-03-02T06:27:32;18.53;;;12.33;;
6376;SDS011;3221;48.858;10.128;2024-03-02T06:30:00;17.73;;;11.67;;
6376;SDS011;3221;48.858;10.128;2024-03-02T06:32:27;17.53;;;12.00;;
6376;SDS011;3221;48.858;10.128;2024-03-02T06:34:54;16.73;;;11.67;;
6376;SDS011;3221;48.858;10.128;2024-03-02T06:37:21;14.77;;;10.33;;
6376;SDS011;3221;48.858;10.128;2024-03-02T06:39:48;15.13;;;10.07;;
6376;SDS011;3221;48.858;10.128;2024-03-02T06:42:15;14.23;;;9.93;;
6376;SDS011;3221;48.858;10.128;2024-03-02T06:44:44;13.30;;;9.77;;
6376;SDS011;3221;48.858;10.128;2024-03-02T06:47:11;14.63;;;10.50;;
6376;SDS011;3221;48.858;10.128;2024-03-02T06:49:38;14.70;;;10.60;;
6376;SDS011;3221;48.858;10.128;2024-03-02T06:52:05;13.83;;;10.53;;
6376;SDS011;3221;48.858;10.128;2024-03-02T06:54:33;13.40;;;9.60;;
6376;SDS011;3221;48.858;10.128;2024-03-02T06:57:01;13.07;;;9.57;;
6376;SDS011;3221;48.858;10.128;2024-03-02T06:59:28;12.47;;;9.33;;
6376;SDS011;3221;48.858;10.128;2024-03-02T07:01:55;14.83;;;10.23;;
6376;SDS011;3221;48.858;10.128;2024-03-02T07:04:23;14.83;;;10.73;;
6376;SDS011;3221;48.858;10.128;2024-03-02T07:06:50;14.67;;;9.93;;
6376;SDS011;3221;48.858;10.128;2024-03-02T07:09:17;13.97;;;9.73;;
6376;SDS011;3221;48.858;10.128;2024-03-02T07:11:44;12.80;;;9.50;;
6376;SDS011;3221;48.858;10.128;2024-03-02T07:14:15;14.37;;;9.37;;
6376;SDS011;3221;48.858;10.128;2024-03-02T07:16:42;14.40;;;10.00;;
6376;SDS011;3221;48.858;10.128;2024-03-02T07:19:09;14.13;;;10.10;;
6376;SDS011;3221;48.858;10.128;2024-03-02T07:21:37;14.43;;;10.10;;
6376;SDS011;3221;48.858;10.128;2024-03-02T07:24:04;14.60;;;9.83;;
6376;SDS011;3221;48.858;10.128;2024-03-02T07:26:32;14.40;;;10.00;;
6376;SDS011;3221;48.858;10.128;2024-03-02T07:29:03;13.83;;;9.97;;
6376;SDS011;3221;48.858;10.128;2024-03-02T07:31:30;13.27;;;9.37;;
6376;SDS011;3221;48.858;10.128;2024-03-02T07:33:57;13.97;;;10.30;;
6376;SDS011;3221;48.858;10.128;2024-03-02T07:36:24;13.57;;;9.97;;
6376;SDS011;3221;48.858;10.128;2024-03-02T07:38:52;12.57;;;9.30;;
6376;SDS011;3221;48.858;10.128;2024-03-02T07:41:19;12.73;;;9.57;;
6376;SDS011;3221;48.858;10.128;2024-03-02T07:43:46;13.77;;;9.90;;
6376;SDS011;3221;48.858;10.128;2024-03-02T07:46:13;14.20;;;9.53;;
6376;SDS011;3221;48.858;10.128;2024-03-02T07:48:40;14.47;;;9.77;;
6376;SDS011;3221;48.858;10.128;2024-03-02T07:51:09;13.07;;;9.67;;
6376;SDS011;3221;48.858;10.128;2024-03-02T07:53:36;13.97;;;9.60;;
6376;SDS011;3221;48.858;10.128;2024-03-02T07:56:03;13.07;;;9.30;;
6376;SDS011;3221;48.858;10.128;2024-03-02T07:58:33;13.37;;;9.40;;
6376;SDS011;3221;48.858;10.128;2024-03-02T08:01:01;13.57;;;9.53;;
6376;SDS011;3221;48.858;10.128;2024-03-02T08:03:29;13.90;;;9.90;;
6376;SDS011;3221;48.858;10.128;2024-03-02T08:05:58;12.70;;;9.57;;
6376;SDS011;3221;48.858;10.128;2024-03-02T08:08:26;11.80;;;8.63;;
6376;SDS011;3221;48.858;10.128;2024-03-02T08:10:58;14.07;;;9.67;;
6376;SDS011;3221;48.858;10.128;2024-03-02T08:13:27;14.67;;;9.93;;
6376;SDS011;3221;48.858;10.128;2024-03-02T08:15:58;13.80;;;9.83;;
6376;SDS011;3221;48.858;10.128;2024-03-02T08:18:25;13.00;;;9.50;;
6376;SDS011;3221;48.858;10.128;2024-03-02T08:20:54;12.23;;;9.57;;
6376;SDS011;3221;48.858;10.128;2024-03-02T08:23:23;14.07;;;10.00;;
6376;SDS011;3221;48.858;10.128;2024-03-02T08:25:51;12.13;;;9.23;;
6376;SDS011;3221;48.858;10.128;2024-03-02T08:28:18;13.60;;;9.47;;
6376;SDS011;3221;48.858;10.128;2024-03-02T08:30:46;12.27;;;9.20;;
6376;SDS011;3221;48.858;10.128;2024-03-02T08:33:13;12.63;;;9.50;;
6376;SDS011;3221;48.858;10.128;2024-03-02T08:35:40;13.60;;;9.47;;
6376;SDS011;3221;48.858;10.128;2024-03-02T08:38:10;11.27;;;8.27;;
6376;SDS011;3221;48.858;10.128;2024-03-02T08:40:37;11.63;;;8.30;;
6376;SDS011;3221;48.858;10.128;2024-03-02T08:43:04;13.73;;;9.73;;
6376;SDS011;3221;48.858;10.128;2024-03-02T08:45:32;12.63;;;9.33;;
6376;SDS011;3221;48.858;10.128;2024-03-02T08:48:00;11.97;;;9.37;;
6376;SDS011;3221;48.858;10.128;2024-03-02T08:50:27;12.10;;;8.97;;
6376;SDS011;3221;48.858;10.128;2024-03-02T08:52:54;13.20;;;9.50;;
6376;SDS011;3221;48.858;10.128;2024-03-02T08:55:21;12.97;;;9.30;;
6376;SDS011;3221;48.858;10.128;2024-03-02T08:57:48;11.43;;;8.83;;
6376;SDS011;3221;48.858;10.128;2024-03-02T09:00:17;10.30;;;7.53;;
6376;SDS011;3221;48.858;10.128;2024-03-02T09:02:45;9.77;;;7.80;;
6376;SDS011;3221;48.858;10.128;2024-03-02T09:05:12;9.97;;;7.77;;
6376;SDS011;3221;48.858;10.128;2024-03-02T09:07:39;9.40;;;7.17;;
6376;SDS011;3221;48.858;10.128;2024-03-02T09:10:07;9.83;;;6.93;;
6376;SDS011;3221;48.858;10.128;2024-03-02T09:12:35;9.13;;;6.97;;
6376;SDS011;3221;48.858;10.128;2024-03-02T09:15:02;9.27;;;7.37;;
6376;SDS011;3221;48.858;10.128;2024-03-02T09:17:29;8.07;;;6.87;;
6376;SDS011;3221;48.858;10.128;2024-03-02T09:19:56;9.43;;;6.87;;
6376;SDS011;3221;48.858;10.128;2024-03-02T09:22:23;7.50;;;6.27;;
6376;SDS011;3221;48.858;10.128;2024-03-02T09:24:50;8.80;;;6.97;;
6376;SDS011;3221;48.858;10.128;2024-03-02T09:27:17;8.53;;;6.77;;
6376;SDS011;3221;48.858;10.128;2024-03-02T09:29:44;8.53;;;6.40;;
6376;SDS011;3221;48.858;10.128;2024-03-02T09:32:14;19.77;;;6.93;;
6376;SDS011;3221;48.858;10.128;2024-03-02T09:34:41;7.93;;;6.30;;
6376;SDS011;3221;48.858;10.128;2024-03-02T09:37:09;8.60;;;6.40;;
6376;SDS011;3221;48.858;10.128;2024-03-02T09:39:37;8.77;;;6.23;;
6376;SDS011;3221;48.858;10.128;2024-03-02T09:42:04;6.77;;;5.50;;
6376;SDS011;3221;48.858;10.128;2024-03-02T09:44:32;6.20;;;4.80;;
6376;SDS011;3221;48.858;10.128;2024-03-02T09:47:00;6.87;;;5.23;;
6376;SDS011;3221;48.858;10.128;2024-03-02T09:49:26;6.77;;;5.53;;
6376;SDS011;3221;48.858;10.128;2024-03-02T09:51:54;5.57;;;4.97;;
6376;SDS011;3221;48.858;10.128;2024-03-02T09:54:21;5.40;;;4.53;;
6376;SDS011;3221;48.858;10.128;2024-03-02T09:56:49;5.67;;;4.47;;
6376;SDS011;3221;48.858;10.128;2024-03-02T09:59:17;5.17;;;4.53;;
6376;SDS011;3221;48.858;10.128;2024-03-02T10:04:27;5.73;;;4.43;;
6376;SDS011;3221;48.858;10.128;2024-03-02T10:07:11;4.80;;;4.13;;
6376;SDS011;3221;48.858;10.128;2024-03-02T10:09:47;4.70;;;3.80;;
6376;SDS011;3221;48.858;10.128;2024-03-02T10:12:16;3.97;;;3.57;;
6376;SDS011;3221;48.858;10.128;2024-03-02T10:14:43;3.80;;;3.40;;
6376;SDS011;3221;48.858;10.128;2024-03-02T10:17:11;3.23;;;2.90;;
6376;SDS011;3221;48.858;10.128;2024-03-02T10:19:39;2.90;;;2.57;;
6376;SDS011;3221;48.858;10.128;2024-03-02T10:22:07;2.50;;;2.30;;
6376;SDS011;3221;48.858;10.128;2024-03-02T10:24:39;2.97;;;2.40;;
6376;SDS011;3221;48.858;10.128;2024-03-02T10:27:10;3.10;;;2.80;;
6376;SDS011;3221;48.858;10.128;2024-03-02T10:29:47;3.00;;;2.70;;
6376;SDS011;3221;48.858;10.128;2024-03-02T10:32:14;3.00;;;2.70;;
6376;SDS011;3221;48.858;10.128;2024-03-02T10:34:44;3.10;;;2.80;;
6376;SDS011;3221;48.858;10.128;2024-03-02T10:37:12;3.80;;;2.83;;
6376;SDS011;3221;48.858;10.128;2024-03-02T10:39:39;3.10;;;2.80;;
6376;SDS011;3221;48.858;10.128;2024-03-02T10:42:07;3.53;;;3.07;;
6376;SDS011;3221;48.858;10.128;2024-03-02T10:44:35;3.67;;;3.10;;
6376;SDS011;3221;48.858;10.128;2024-03-02T10:47:03;3.50;;;2.90;;
6376;SDS011;3221;48.858;10.128;2024-03-02T10:49:31;3.20;;;2.90;;
6376;SDS011;3221;48.858;10.128;2024-03-02T10:51:59;3.30;;;2.73;;
6376;SDS011;3221;48.858;10.128;2024-03-02T10:54:27;3.33;;;3.03;;
6376;SDS011;3221;48.858;10.128;2024-03-02T10:56:58;3.17;;;2.87;;
6376;SDS011;3221;48.858;10.128;2024-03-02T11:02:00;4.17;;;3.00;;
6376;SDS011;3221;48.858;10.128;2024-03-02T11:04:31;2.60;;;2.40;;
6376;SDS011;3221;48.858;10.128;2024-03-02T11:07:00;3.20;;;2.80;;
6376;SDS011;3221;48.858;10.128;2024-03-02T11:09:32;3.50;;;2.50;;
6376;SDS011;3221;48.858;10.128;2024-03-02T11:14:52;3.23;;;2.83;;
6376;SDS011;3221;48.858;10.128;2024-03-02T11:17:21;2.90;;;2.60;;
6376;SDS011;3221;48.858;10.128;2024-03-02T11:19:50;3.03;;;2.73;;
6376;SDS011;3221;48.858;10.128;2024-03-02T11:22:18;3.53;;;2.63;;
6376;SDS011;3221;48.858;10.128;2024-03-02T11:24:49;4.93;;;4.07;;
6376;SDS011;3221;48.858;10.128;2024-03-02T11:33:00;2.70;;;2.20;;
6376;SDS011;3221;48.858;10.128;2024-03-02T11:35:38;2.30;;;2.10;;
6376;SDS011;3221;48.858;10.128;2024-03-02T11:38:14;3.30;;;2.20;;
6376;SDS011;3221;48.858;10.128;2024-03-02T11:40:41;2.50;;;2.30;;
6376;SDS011;3221;48.858;10.128;2024-03-02T11:43:09;2.03;;;1.87;;
6376;SDS011;3221;48.858;10.128;2024-03-02T11:45:37;3.17;;;2.87;;
6376;SDS011;3221;48.858;10.128;2024-03-02T11:48:12;3.10;;;2.70;;
6376;SDS011;3221;48.858;10.128;2024-03-02T11:50:42;2.93;;;2.70;;
6376;SDS011;3221;48.858;10.128;2024-03-02T11:53:15;4.30;;;2.53;;
6376;SDS011;3221;48.858;10.128;2024-03-02T11:55:43;3.47;;;2.90;;
6376;SDS011;3221;48.858;10.128;2024-03-02T11:58:13;3.13;;;2.77;;
6376;SDS011;3221;48.858;10.128;2024-03-02T12:00:47;2.93;;;2.60;;
6376;SDS011;3221;48.858;10.128;2024-03-02T12:03:17;5.33;;;2.80;;
6376;SDS011;3221;48.858;10.128;2024-03-02T12:05:49;2.80;;;2.60;;
6376;SDS011;3221;48.858;10.128;2024-03-02T12:08:16;3.67;;;2.80;;
6376;SDS011;3221;48.858;10.128;2024-03-02T12:10:45;4.63;;;2.40;;
6376;SDS011;3221;48.858;10.128;2024-03-02T12:13:27;2.63;;;2.43;;
6376;SDS011;3221;48.858;10.128;2024-03-02T12:15:54;2.57;;;2.30;;
6376;SDS011;3221;48.858;10.128;2024-03-02T12:18:26;2.57;;;2.37;;
6376;SDS011;3221;48.858;10.128;2024-03-02T12:20:53;2.60;;;2.40;;
6376;SDS011;3221;48.858;10.128;2024-03-02T12:23:24;3.30;;;2.20;;
6376;SDS011;3221;48.858;10.128;2024-03-02T12:25:51;2.40;;;2.20;;
6376;SDS011;3221;48.858;10.128;2024-03-02T12:28:19;5.37;;;4.40;;
6376;SDS011;3221;48.858;10.128;2024-03-02T12:30:46;9.27;;;7.27;;
6376;SDS011;3221;48.858;10.128;2024-03-02T12:33:14;4.47;;;3.70;;
6376;SDS011;3221;48.858;10.128;2024-03-02T12:35:41;3.60;;;3.00;;
6376;SDS011;3221;48.858;10.128;2024-03-02T12:38:09;4.83;;;4.07;;
6376;SDS011;3221;48.858;10.128;2024-03-02T12:40:37;4.03;;;3.63;;
6376;SDS011;3221;48.858;10.128;2024-03-02T12:43:05;4.00;;;3.40;;
6376;SDS011;3221;48.858;10.128;2024-03-02T12:45:33;3.50;;;3.20;;
6376;SDS011;3221;48.858;10.128;2024-03-02T12:48:01;5.47;;;3.50;;
6376;SDS011;3221;48.858;10.128;2024-03-02T12:50:28;3.60;;;3.30;;
6376;SDS011;3221;48.858;10.128;2024-03-02T12:52:55;4.60;;;3.80;;
6376;SDS011;3221;48.858;10.128;2024-03-02T12:55:22;4.27;;;3.87;;
6376;SDS011;3221;48.858;10.128;2024-03-02T12:57:53;3.73;;;3.40;;
6376;SDS011;3221;48.858;10.128;2024-03-02T13:00:21;4.17;;;3.53;;
6376;SDS011;3221;48.858;10.128;2024-03-02T13:02:49;4.37;;;3.97;;
6376;SDS011;3221;48.858;10.128;2024-03-02T13:05:18;3.87;;;3.47;;
6376;SDS011;3221;48.858;10.128;2024-03-02T13:07:47;4.40;;;3.40;;
6376;SDS011;3221;48.858;10.128;2024-03-02T13:10:15;3.80;;;3.50;;
6376;SDS011;3221;48.858;10.128;2024-03-02T13:12:44;4.27;;;3.50;;
6376;SDS011;3221;48.858;10.128;2024-03-02T13:15:11;4.13;;;3.60;;
6376;SDS011;3221;48.858;10.128;2024-03-02T13:17:44;4.17;;;3.77;;
6376;SDS011;3221;48.858;10.128;2024-03-02T13:20:12;4.33;;;3.93;;
6376;SDS011;3221;48.858;10.128;2024-03-02T13:22:41;4.10;;;3.70;;
6376;SDS011;3221;48.858;10.128;2024-03-02T13:25:08;4.83;;;4.13;;
6376;SDS011;3221;48.858;10.128;2024-03-02T13:27:37;4.77;;;4.33;;
6376;SDS011;3221;48.858;10.128;2024-03-02T13:30:04;4.43;;;4.03;;
6376;SDS011;3221;48.858;10.128;2024-03-02T13:32:32;3.93;;;3.63;;
6376;SDS011;3221;48.858;10.128;2024-03-02T13:34:59;5.07;;;4.57;;
6376;SDS011;3221;48.858;10.128;2024-03-02T13:37:26;5.63;;;4.40;;
6376;SDS011;3221;48.858;10.128;2024-03-02T13:39:53;5.07;;;4.57;;
6376;SDS011;3221;48.858;10.128;2024-03-02T13:42:21;5.30;;;4.80;;
6376;SDS011;3221;48.858;10.128;2024-03-02T13:44:48;6.63;;;5.40;;
6376;SDS011;3221;48.858;10.128;2024-03-02T13:47:17;5.77;;;5.13;;
6376;SDS011;3221;48.858;10.128;2024-03-02T13:49:44;5.97;;;5.37;;
6376;SDS011;3221;48.858;10.128;2024-03-02T13:52:13;5.30;;;4.80;;
6376;SDS011;3221;48.858;10.128;2024-03-02T13:54:40;5.73;;;5.23;;
6376;SDS011;3221;48.858;10.128;2024-03-02T13:57:09;6.17;;;5.57;;
6376;SDS011;3221;48.858;10.128;2024-03-02T13:59:36;6.00;;;5.40;;
6376;SDS011;3221;48.858;10.128;2024-03-02T14:02:04;5.93;;;5.33;;
6376;SDS011;3221;48.858;10.128;2024-03-02T14:04:36;5.80;;;5.20;;
6376;SDS011;3221;48.858;10.128;2024-03-02T14:07:04;7.10;;;6.40;;
6376;SDS011;3221;48.858;10.128;2024-03-02T14:09:35;6.93;;;6.23;;
6376;SDS011;3221;48.858;10.128;2024-03-02T14:12:03;6.43;;;5.77;;
6376;SDS011;3221;48.858;10.128;2024-03-02T14:14:31;7.43;;;6.07;;
6376;SDS011;3221;48.858;10.128;2024-03-02T14:16:59;7.77;;;6.37;;
6376;SDS011;3221;48.858;10.128;2024-03-02T14:19:33;6.60;;;5.90;;
6376;SDS011;3221;48.858;10.128;2024-03-02T14:22:00;6.33;;;5.73;;
6376;SDS011;3221;48.858;10.128;2024-03-02T14:24:27;5.77;;;5.20;;
6376;SDS011;3221;48.858;10.128;2024-03-02T14:26:56;6.93;;;5.83;;
6376;SDS011;3221;48.858;10.128;2024-03-02T14:29:43;6.97;;;6.27;;
6376;SDS011;3221;48.858;10.128;2024-03-02T14:32:10;6.70;;;5.77;;
6376;SDS011;3221;48.858;10.128;2024-03-02T14:34:37;6.57;;;5.87;;
6376;SDS011;3221;48.858;10.128;2024-03-02T14:37:06;7.10;;;6.40;;
6376;SDS011;3221;48.858;10.128;2024-03-02T14:39:33;8.43;;;6.93;;
6376;SDS011;3221;48.858;10.128;2024-03-02T14:42:01;7.50;;;6.70;;
6376;SDS011;3221;48.858;10.128;2024-03-02T14:44:28;8.13;;;7.13;;
6376;SDS011;3221;48.858;10.128;2024-03-02T14:46:55;9.90;;;8.03;;
6376;SDS011;3221;48.858;10.128;2024-03-02T14:49:25;11.10;;;8.50;;
6376;SDS011;3221;48.858;10.128;2024-03-02T14:51:52;9.30;;;8.00;;
6376;SDS011;3221;48.858;10.128;2024-03-02T14:54:19;7.77;;;6.73;;
6376;SDS011;3221;48.858;10.128;2024-03-02T14:56:46;7.97;;;6.90;;
6376;SDS011;3221;48.858;10.128;2024-03-02T14:59:13;9.27;;;7.60;;
6376;SDS011;3221;48.858;10.128;2024-03-02T15:01:40;8.47;;;6.73;;
6376;SDS011;3221;48.858;10.128;2024-03-02T15:04:07;6.90;;;6.17;;
6376;SDS011;3221;48.858;10.128;2024-03-02T15:06:34;7.47;;;6.37;;
6376;SDS011;3221;48.858;10.128;2024-03-02T15:09:01;6.77;;;5.70;;